sensor_id;sensor_type;location;lat;lon;timestamp;temperature;humidity
52016;DHT22;38032;53.326;6.472;2023-05-14T00:02:14;12.00;99.90
52016;DHT22;38032;53.326;6.472;2023-05-14T00:04:39;12.00;99.90
52016;DHT22;38032;53.326;6.472;2023-05-14T00:07:05;12.00;99.90
52016;DHT22;38032;53.326;6.472;2023-05-14T00:09:31;12.00;99.90
52016;DHT22;38032;53.326;6.472;2023-05-14T00:11:57;11.90;99.90
52016;DHT22;38032;53.326;6.472;2023-05-14T00:14:23;11.80;99.90
52016;DHT22;38032;53.326;6.472;2023-05-14T00:16:49;11.90;99.90
52016;DHT22;38032;53.326;6.472;2023-05-14T00:19:15;11.90;99.90
52016;DHT22;38032;53.326;6.472;2023-05-14T00:21:41;11.90;99.90
52016;DHT22;38032;53.326;6.472;2023-05-14T00:24:07;11.80;99.90
52016;DHT22;38032;53.326;6.472;2023-05-14T00:26:33;11.80;99.90
52016;DHT22;38032;53.326;6.472;2023-05-14T00:28:58;11.70;99.90
52016;DHT22;38032;53.326;6.472;2023-05-14T00:31:24;11.70;99.90
52016;DHT22;38032;53.326;6.472;2023-05-14T00:33:50;11.70;99.90
52016;DHT22;38032;53.326;6.472;2023-05-14T00:36:16;11.60;99.90
52016;DHT22;38032;53.326;6.472;2023-05-14T00:38:42;11.60;99.90
52016;DHT22;38032;53.326;6.472;2023-05-14T00:41:08;11.50;99.90
52016;DHT22;38032;53.326;6.472;2023-05-14T00:43:33;11.40;99.90
52016;DHT22;38032;53.326;6.472;2023-05-14T00:46:00;11.40;99.90
52016;DHT22;38032;53.326;6.472;2023-05-14T00:48:26;11.30;99.90
52016;DHT22;38032;53.326;6.472;2023-05-14T00:50:52;11.30;99.90
52016;DHT22;38032;53.326;6.472;2023-05-14T00:53:18;11.30;99.90
52016;DHT22;38032;53.326;6.472;2023-05-14T00:55:46;11.20;99.90
52016;DHT22;38032;53.326;6.472;2023-05-14T00:58:13;11.20;99.90
52016;DHT22;38032;53.326;6.472;2023-05-14T01:00:40;11.20;99.90
52016;DHT22;38032;53.326;6.472;2023-05-14T01:03:06;11.10;99.90
52016;DHT22;38032;53.326;6.472;2023-05-14T01:05:48;11.00;99.90
52016;DHT22;38032;53.326;6.472;2023-05-14T01:10:51;11.00;99.90
52016;DHT22;38032;53.326;6.472;2023-05-14T01:13:25;11.00;99.90
52016;DHT22;38032;53.326;6.472;2023-05-14T01:15:52;11.00;99.90
52016;DHT22;38032;53.326;6.472;2023-05-14T01:18:21;11.00;99.90
52016;DHT22;38032;53.326;6.472;2023-05-14T01:20:49;11.10;99.90
52016;DHT22;38032;53.326;6.472;2023-05-14T01:23:17;11.10;99.90
52016;DHT22;38032;53.326;6.472;2023-05-14T01:25:42;11.00;99.90
52016;DHT22;38032;53.326;6.472;2023-05-14T01:28:22;11.10;99.90
52016;DHT22;38032;53.326;6.472;2023-05-14T01:31:00;11.10;99.90
52016;DHT22;38032;53.326;6.472;2023-05-14T01:33:28;11.10;99.90
52016;DHT22;38032;53.326;6.472;2023-05-14T01:35:56;11.10;99.90
52016;DHT22;38032;53.326;6.472;2023-05-14T01:38:23;11.20;99.90
52016;DHT22;38032;53.326;6.472;2023-05-14T01:40:50;11.20;99.90
52016;DHT22;38032;53.326;6.472;2023-05-14T01:43:17;11.30;99.90
52016;DHT22;38032;53.326;6.472;2023-05-14T01:45:43;11.30;99.90
52016;DHT22;38032;53.326;6.472;2023-05-14T01:48:09;11.40;99.90
52016;DHT22;38032;53.326;6.472;2023-05-14T01:50:35;11.40;99.90
52016;DHT22;38032;53.326;6.472;2023-05-14T01:53:01;11.40;99.90
52016;DHT22;38032;53.326;6.472;2023-05-14T01:55:27;11.40;99.90
52016;DHT22;38032;53.326;6.472;2023-05-14T01:57:53;11.50;99.90
52016;DHT22;38032;53.326;6.472;2023-05-14T02:00:21;11.50;99.90
52016;DHT22;38032;53.326;6.472;2023-05-14T02:02:47;11.50;99.90
52016;DHT22;38032;53.326;6.472;2023-05-14T02:05:13;11.50;99.90
52016;DHT22;38032;53.326;6.472;2023-05-14T02:07:38;11.50;99.90
52016;DHT22;38032;53.326;6.472;2023-05-14T02:10:05;11.60;99.90
52016;DHT22;38032;53.326;6.472;2023-05-14T02:12:31;11.60;99.90
52016;DHT22;38032;53.326;6.472;2023-05-14T02:14:57;11.50;99.90
52016;DHT22;38032;53.326;6.472;2023-05-14T02:17:24;11.60;99.90
52016;DHT22;38032;53.326;6.472;2023-05-14T02:19:50;11.60;99.90
52016;DHT22;38032;53.326;6.472;2023-05-14T02:22:16;11.50;99.90
52016;DHT22;38032;53.326;6.472;2023-05-14T02:24:42;11.60;99.90
52016;DHT22;38032;53.326;6.472;2023-05-14T02:27:08;11.50;99.90
52016;DHT22;38032;53.326;6.472;2023-05-14T02:29:34;11.50;99.90
52016;DHT22;38032;53.326;6.472;2023-05-14T02:31:59;11.40;99.90
52016;DHT22;38032;53.326;6.472;2023-05-14T02:34:25;11.50;99.90
52016;DHT22;38032;53.326;6.472;2023-05-14T02:36:51;11.50;99.90
52016;DHT22;38032;53.326;6.472;2023-05-14T02:39:17;11.40;99.90
52016;DHT22;38032;53.326;6.472;2023-05-14T02:41:43;11.40;99.90
52016;DHT22;38032;53.326;6.472;2023-05-14T02:44:09;11.30;99.90
52016;DHT22;38032;53.326;6.472;2023-05-14T02:46:34;11.30;99.90
52016;DHT22;38032;53.326;6.472;2023-05-14T02:49:00;11.20;99.90
52016;DHT22;38032;53.326;6.472;2023-05-14T02:51:27;11.20;99.90
52016;DHT22;38032;53.326;6.472;2023-05-14T02:53:53;11.20;99.90
52016;DHT22;38032;53.326;6.472;2023-05-14T02:56:19;11.10;99.90
52016;DHT22;38032;53.326;6.472;2023-05-14T02:58:45;11.10;99.90
52016;DHT22;38032;53.326;6.472;2023-05-14T03:01:12;11.10;99.90
52016;DHT22;38032;53.326;6.472;2023-05-14T03:03:38;11.10;99.90
52016;DHT22;38032;53.326;6.472;2023-05-14T03:06:04;11.10;99.90
52016;DHT22;38032;53.326;6.472;2023-05-14T03:08:30;11.10;99.90
52016;DHT22;38032;53.326;6.472;2023-05-14T03:10:56;11.10;99.90
52016;DHT22;38032;53.326;6.472;2023-05-14T03:13:22;11.10;99.90
52016;DHT22;38032;53.326;6.472;2023-05-14T03:15:47;11.10;99.90
52016;DHT22;38032;53.326;6.472;2023-05-14T03:18:14;11.10;99.90
52016;DHT22;38032;53.326;6.472;2023-05-14T03:20:40;11.10;99.90
52016;DHT22;38032;53.326;6.472;2023-05-14T03:23:06;11.20;99.90
52016;DHT22;38032;53.326;6.472;2023-05-14T03:25:32;11.20;99.90
52016;DHT22;38032;53.326;6.472;2023-05-14T03:27:59;11.20;99.90
52016;DHT22;38032;53.326;6.472;2023-05-14T03:30:25;11.20;99.90
52016;DHT22;38032;53.326;6.472;2023-05-14T03:32:51;11.30;99.90
52016;DHT22;38032;53.326;6.472;2023-05-14T03:35:18;11.30;99.90
52016;DHT22;38032;53.326;6.472;2023-05-14T03:37:43;11.30;99.90
52016;DHT22;38032;53.326;6.472;2023-05-14T03:40:09;11.30;99.90
52016;DHT22;38032;53.326;6.472;2023-05-14T03:42:35;11.30;99.90
52016;DHT22;38032;53.326;6.472;2023-05-14T03:45:01;11.40;99.90
52016;DHT22;38032;53.326;6.472;2023-05-14T03:47:27;11.40;99.90
52016;DHT22;38032;53.326;6.472;2023-05-14T03:49:53;11.40;99.90
52016;DHT22;38032;53.326;6.472;2023-05-14T03:52:19;11.40;99.90
52016;DHT22;38032;53.326;6.472;2023-05-14T03:54:45;11.50;99.90
52016;DHT22;38032;53.326;6.472;2023-05-14T03:57:11;11.50;99.90
52016;DHT22;38032;53.326;6.472;2023-05-14T03:59:36;11.50;99.90
52016;DHT22;38032;53.326;6.472;2023-05-14T04:02:02;11.60;99.90
52016;DHT22;38032;53.326;6.472;2023-05-14T04:04:28;11.60;99.90
52016;DHT22;38032;53.326;6.472;2023-05-14T04:06:54;11.60;99.90
52016;DHT22;38032;53.326;6.472;2023-05-14T04:09:20;11.60;99.90
52016;DHT22;38032;53.326;6.472;2023-05-14T04:11:46;11.70;99.90
52016;DHT22;38032;53.326;6.472;2023-05-14T04:14:12;11.70;99.90
52016;DHT22;38032;53.326;6.472;2023-05-14T04:16:38;11.70;99.90
52016;DHT22;38032;53.326;6.472;2023-05-14T04:19:03;11.80;99.90
52016;DHT22;38032;53.326;6.472;2023-05-14T04:21:30;11.80;99.90
52016;DHT22;38032;53.326;6.472;2023-05-14T04:23:56;11.80;99.90
52016;DHT22;38032;53.326;6.472;2023-05-14T04:26:22;11.80;99.90
52016;DHT22;38032;53.326;6.472;2023-05-14T04:28:48;11.90;99.90
52016;DHT22;38032;53.326;6.472;2023-05-14T04:31:14;11.90;99.90
52016;DHT22;38032;53.326;6.472;2023-05-14T04:33:40;11.80;99.90
52016;DHT22;38032;53.326;6.472;2023-05-14T04:36:06;11.90;99.90
52016;DHT22;38032;53.326;6.472;2023-05-14T04:38:32;11.90;99.90
52016;DHT22;38032;53.326;6.472;2023-05-14T04:40:59;11.90;99.90
52016;DHT22;38032;53.326;6.472;2023-05-14T04:43:24;11.90;99.90
52016;DHT22;38032;53.326;6.472;2023-05-14T04:45:50;11.90;99.90
52016;DHT22;38032;53.326;6.472;2023-05-14T04:48:17;11.90;99.90
52016;DHT22;38032;53.326;6.472;2023-05-14T04:50:43;11.90;99.90
52016;DHT22;38032;53.326;6.472;2023-05-14T04:53:09;11.90;99.90
52016;DHT22;38032;53.326;6.472;2023-05-14T04:55:35;12.00;99.90
52016;DHT22;38032;53.326;6.472;2023-05-14T04:58:02;12.00;99.90
52016;DHT22;38032;53.326;6.472;2023-05-14T05:00:28;12.00;99.90
52016;DHT22;38032;53.326;6.472;2023-05-14T05:02:54;12.00;99.90
52016;DHT22;38032;53.326;6.472;2023-05-14T05:05:20;12.00;99.90
52016;DHT22;38032;53.326;6.472;2023-05-14T05:07:46;12.00;99.90
52016;DHT22;38032;53.326;6.472;2023-05-14T05:10:12;12.00;99.90
52016;DHT22;38032;53.326;6.472;2023-05-14T05:12:38;12.00;99.90
52016;DHT22;38032;53.326;6.472;2023-05-14T05:15:04;12.10;99.90
52016;DHT22;38032;53.326;6.472;2023-05-14T05:17:30;12.10;99.90
52016;DHT22;38032;53.326;6.472;2023-05-14T05:19:56;12.10;99.90
52016;DHT22;38032;53.326;6.472;2023-05-14T05:22:23;12.10;99.90
52016;DHT22;38032;53.326;6.472;2023-05-14T05:24:48;12.20;99.90
52016;DHT22;38032;53.326;6.472;2023-05-14T05:27:14;12.20;99.90
52016;DHT22;38032;53.326;6.472;2023-05-14T05:29:42;12.20;99.90
52016;DHT22;38032;53.326;6.472;2023-05-14T05:32:08;12.20;99.90
52016;DHT22;38032;53.326;6.472;2023-05-14T05:34:34;12.20;99.90
52016;DHT22;38032;53.326;6.472;2023-05-14T05:37:00;12.30;99.90
52016;DHT22;38032;53.326;6.472;2023-05-14T05:39:26;12.40;99.90
52016;DHT22;38032;53.326;6.472;2023-05-14T05:41:53;12.40;99.90
52016;DHT22;38032;53.326;6.472;2023-05-14T05:44:18;12.50;99.90
52016;DHT22;38032;53.326;6.472;2023-05-14T05:46:44;12.60;99.90
52016;DHT22;38032;53.326;6.472;2023-05-14T05:49:10;12.70;99.90
52016;DHT22;38032;53.326;6.472;2023-05-14T05:51:36;12.90;99.90
52016;DHT22;38032;53.326;6.472;2023-05-14T05:54:02;13.10;99.90
52016;DHT22;38032;53.326;6.472;2023-05-14T05:56:28;13.20;99.90
52016;DHT22;38032;53.326;6.472;2023-05-14T05:58:54;13.40;99.90
52016;DHT22;38032;53.326;6.472;2023-05-14T06:01:19;13.50;99.90
52016;DHT22;38032;53.326;6.472;2023-05-14T06:03:45;13.60;99.90
52016;DHT22;38032;53.326;6.472;2023-05-14T06:06:11;13.70;99.90
52016;DHT22;38032;53.326;6.472;2023-05-14T06:08:37;13.70;99.90
52016;DHT22;38032;53.326;6.472;2023-05-14T06:11:03;13.70;99.90
52016;DHT22;38032;53.326;6.472;2023-05-14T06:13:29;13.80;99.90
52016;DHT22;38032;53.326;6.472;2023-05-14T06:15:55;13.90;99.90
52016;DHT22;38032;53.326;6.472;2023-05-14T06:18:20;14.00;99.90
52016;DHT22;38032;53.326;6.472;2023-05-14T06:20:46;14.10;99.90
52016;DHT22;38032;53.326;6.472;2023-05-14T06:23:12;14.20;99.90
52016;DHT22;38032;53.326;6.472;2023-05-14T06:25:38;14.20;99.90
52016;DHT22;38032;53.326;6.472;2023-05-14T06:28:04;14.30;99.90
52016;DHT22;38032;53.326;6.472;2023-05-14T06:30:30;14.40;99.90
52016;DHT22;38032;53.326;6.472;2023-05-14T06:32:55;14.40;99.90
52016;DHT22;38032;53.326;6.472;2023-05-14T06:35:22;14.40;99.90
52016;DHT22;38032;53.326;6.472;2023-05-14T06:37:48;14.40;99.90
52016;DHT22;38032;53.326;6.472;2023-05-14T06:40:14;14.40;99.90
52016;DHT22;38032;53.326;6.472;2023-05-14T06:42:41;14.40;99.90
52016;DHT22;38032;53.326;6.472;2023-05-14T06:45:07;14.50;99.90
52016;DHT22;38032;53.326;6.472;2023-05-14T06:47:33;14.50;99.90
52016;DHT22;38032;53.326;6.472;2023-05-14T06:49:58;14.50;99.90
52016;DHT22;38032;53.326;6.472;2023-05-14T06:52:26;14.50;99.90
52016;DHT22;38032;53.326;6.472;2023-05-14T06:54:52;14.60;99.90
52016;DHT22;38032;53.326;6.472;2023-05-14T06:57:18;14.50;99.90
52016;DHT22;38032;53.326;6.472;2023-05-14T06:59:43;14.60;99.90
52016;DHT22;38032;53.326;6.472;2023-05-14T07:02:10;14.60;99.90
52016;DHT22;38032;53.326;6.472;2023-05-14T07:04:36;14.60;99.90
52016;DHT22;38032;53.326;6.472;2023-05-14T07:07:02;14.80;99.90
52016;DHT22;38032;53.326;6.472;2023-05-14T07:09:28;14.80;99.90
52016;DHT22;38032;53.326;6.472;2023-05-14T07:11:54;15.00;99.90
52016;DHT22;38032;53.326;6.472;2023-05-14T07:14:20;15.00;99.90
52016;DHT22;38032;53.326;6.472;2023-05-14T07:16:46;15.00;99.90
52016;DHT22;38032;53.326;6.472;2023-05-14T07:19:12;15.00;99.90
52016;DHT22;38032;53.326;6.472;2023-05-14T07:21:38;15.20;99.90
52016;DHT22;38032;53.326;6.472;2023-05-14T07:24:04;15.30;99.90
52016;DHT22;38032;53.326;6.472;2023-05-14T07:26:30;15.30;99.90
52016;DHT22;38032;53.326;6.472;2023-05-14T07:28:56;15.30;99.90
52016;DHT22;38032;53.326;6.472;2023-05-14T07:31:22;15.20;99.90
52016;DHT22;38032;53.326;6.472;2023-05-14T07:33:48;15.10;99.90
52016;DHT22;38032;53.326;6.472;2023-05-14T07:36:14;15.20;99.90
52016;DHT22;38032;53.326;6.472;2023-05-14T07:38:39;15.30;99.90
52016;DHT22;38032;53.326;6.472;2023-05-14T07:41:05;15.50;99.90
52016;DHT22;38032;53.326;6.472;2023-05-14T07:43:32;15.70;99.90
52016;DHT22;38032;53.326;6.472;2023-05-14T07:45:58;16.00;99.90
52016;DHT22;38032;53.326;6.472;2023-05-14T07:48:24;16.20;99.90
52016;DHT22;38032;53.326;6.472;2023-05-14T07:50:50;16.20;99.90
52016;DHT22;38032;53.326;6.472;2023-05-14T07:53:16;16.20;99.90
52016;DHT22;38032;53.326;6.472;2023-05-14T07:55:43;16.30;99.90
52016;DHT22;38032;53.326;6.472;2023-05-14T07:58:09;16.30;99.90
52016;DHT22;38032;53.326;6.472;2023-05-14T08:00:36;16.40;99.90
52016;DHT22;38032;53.326;6.472;2023-05-14T08:03:01;16.40;99.90
52016;DHT22;38032;53.326;6.472;2023-05-14T08:05:28;16.40;99.90
52016;DHT22;38032;53.326;6.472;2023-05-14T08:07:53;16.50;99.90
52016;DHT22;38032;53.326;6.472;2023-05-14T08:10:19;16.50;99.90
52016;DHT22;38032;53.326;6.472;2023-05-14T08:12:45;16.60;99.90
52016;DHT22;38032;53.326;6.472;2023-05-14T08:15:11;16.70;99.90
52016;DHT22;38032;53.326;6.472;2023-05-14T08:17:37;16.90;99.90
52016;DHT22;38032;53.326;6.472;2023-05-14T08:20:03;17.00;99.90
52016;DHT22;38032;53.326;6.472;2023-05-14T08:22:31;16.90;99.90
52016;DHT22;38032;53.326;6.472;2023-05-14T08:24:57;17.00;99.90
52016;DHT22;38032;53.326;6.472;2023-05-14T08:27:23;17.10;99.90
52016;DHT22;38032;53.326;6.472;2023-05-14T08:29:48;17.10;99.90
52016;DHT22;38032;53.326;6.472;2023-05-14T08:32:14;17.10;99.90
52016;DHT22;38032;53.326;6.472;2023-05-14T08:34:40;17.20;99.90
52016;DHT22;38032;53.326;6.472;2023-05-14T08:37:06;17.30;99.90
52016;DHT22;38032;53.326;6.472;2023-05-14T08:39:32;17.40;99.90
52016;DHT22;38032;53.326;6.472;2023-05-14T08:41:59;17.50;99.90
52016;DHT22;38032;53.326;6.472;2023-05-14T08:44:35;17.60;99.90
52016;DHT22;38032;53.326;6.472;2023-05-14T08:47:03;17.70;99.90
52016;DHT22;38032;53.326;6.472;2023-05-14T08:49:37;17.80;99.90
52016;DHT22;38032;53.326;6.472;2023-05-14T08:52:05;17.90;99.90
52016;DHT22;38032;53.326;6.472;2023-05-14T08:54:31;18.10;99.90
52016;DHT22;38032;53.326;6.472;2023-05-14T08:56:58;18.20;99.90
52016;DHT22;38032;53.326;6.472;2023-05-14T08:59:24;18.40;99.90
52016;DHT22;38032;53.326;6.472;2023-05-14T09:01:53;18.50;99.90
52016;DHT22;38032;53.326;6.472;2023-05-14T09:04:20;18.50;99.90
52016;DHT22;38032;53.326;6.472;2023-05-14T09:06:52;18.50;99.90
52016;DHT22;38032;53.326;6.472;2023-05-14T09:09:19;18.70;99.90
52016;DHT22;38032;53.326;6.472;2023-05-14T09:11:48;19.00;99.90
52016;DHT22;38032;53.326;6.472;2023-05-14T09:14:14;19.20;99.90
52016;DHT22;38032;53.326;6.472;2023-05-14T09:16:44;20.40;99.90
52016;DHT22;38032;53.326;6.472;2023-05-14T09:19:11;20.30;99.90
52016;DHT22;38032;53.326;6.472;2023-05-14T09:21:38;21.00;99.90
52016;DHT22;38032;53.326;6.472;2023-05-14T09:24:05;21.60;99.90
52016;DHT22;38032;53.326;6.472;2023-05-14T09:26:32;22.20;99.90
52016;DHT22;38032;53.326;6.472;2023-05-14T09:28:58;22.50;99.90
52016;DHT22;38032;53.326;6.472;2023-05-14T09:31:32;22.70;99.90
52016;DHT22;38032;53.326;6.472;2023-05-14T09:33:58;23.20;99.90
52016;DHT22;38032;53.326;6.472;2023-05-14T09:36:25;24.00;99.90
52016;DHT22;38032;53.326;6.472;2023-05-14T09:38:55;24.50;99.90
52016;DHT22;38032;53.326;6.472;2023-05-14T09:41:21;25.00;99.60
52016;DHT22;38032;53.326;6.472;2023-05-14T09:43:48;25.50;97.40
52016;DHT22;38032;53.326;6.472;2023-05-14T09:46:14;25.80;95.30
52016;DHT22;38032;53.326;6.472;2023-05-14T09:48:40;25.80;92.50
52016;DHT22;38032;53.326;6.472;2023-05-14T09:51:09;25.80;91.70
52016;DHT22;38032;53.326;6.472;2023-05-14T09:53:36;25.80;91.10
52016;DHT22;38032;53.326;6.472;2023-05-14T09:56:02;25.70;90.90
52016;DHT22;38032;53.326;6.472;2023-05-14T09:58:28;25.40;91.80
52016;DHT22;38032;53.326;6.472;2023-05-14T10:00:56;24.90;92.60
52016;DHT22;38032;53.326;6.472;2023-05-14T10:03:24;24.60;95.10
52016;DHT22;38032;53.326;6.472;2023-05-14T10:05:51;24.40;95.80
52016;DHT22;38032;53.326;6.472;2023-05-14T10:08:21;24.50;95.90
52016;DHT22;38032;53.326;6.472;2023-05-14T10:10:51;24.50;96.00
52016;DHT22;38032;53.326;6.472;2023-05-14T10:13:21;24.70;96.00
52016;DHT22;38032;53.326;6.472;2023-05-14T10:18:26;24.10;94.60
52016;DHT22;38032;53.326;6.472;2023-05-14T10:21:03;23.80;96.90
52016;DHT22;38032;53.326;6.472;2023-05-14T10:23:29;23.80;96.70
52016;DHT22;38032;53.326;6.472;2023-05-14T10:25:57;23.80;96.60
52016;DHT22;38032;53.326;6.472;2023-05-14T10:28:23;23.90;96.90
52016;DHT22;38032;53.326;6.472;2023-05-14T10:30:49;24.20;96.80
52016;DHT22;38032;53.326;6.472;2023-05-14T10:33:16;24.40;95.10
52016;DHT22;38032;53.326;6.472;2023-05-14T10:36:06;24.60;95.00
52016;DHT22;38032;53.326;6.472;2023-05-14T10:38:35;24.80;92.50
52016;DHT22;38032;53.326;6.472;2023-05-14T10:41:03;25.00;92.30
52016;DHT22;38032;53.326;6.472;2023-05-14T10:43:30;25.20;91.90
52016;DHT22;38032;53.326;6.472;2023-05-14T10:45:57;25.00;91.70
52016;DHT22;38032;53.326;6.472;2023-05-14T10:48:24;25.10;92.60
52016;DHT22;38032;53.326;6.472;2023-05-14T10:50:51;25.30;92.30
52016;DHT22;38032;53.326;6.472;2023-05-14T10:53:17;25.40;91.80
52016;DHT22;38032;53.326;6.472;2023-05-14T10:55:43;25.30;90.90
52016;DHT22;38032;53.326;6.472;2023-05-14T10:58:09;25.30;92.30
52016;DHT22;38032;53.326;6.472;2023-05-14T11:00:37;25.50;93.00
52016;DHT22;38032;53.326;6.472;2023-05-14T11:03:05;25.70;91.20
52016;DHT22;38032;53.326;6.472;2023-05-14T11:05:32;26.00;90.10
52016;DHT22;38032;53.326;6.472;2023-05-14T11:07:58;26.30;88.40
52016;DHT22;38032;53.326;6.472;2023-05-14T11:10:26;26.50;86.60
52016;DHT22;38032;53.326;6.472;2023-05-14T11:12:55;26.50;86.50
52016;DHT22;38032;53.326;6.472;2023-05-14T11:15:23;26.50;87.30
52016;DHT22;38032;53.326;6.472;2023-05-14T11:17:50;26.50;82.90
52016;DHT22;38032;53.326;6.472;2023-05-14T11:20:17;26.30;79.40
52016;DHT22;38032;53.326;6.472;2023-05-14T11:22:45;26.00;78.70
52016;DHT22;38032;53.326;6.472;2023-05-14T11:25:12;25.90;80.40
52016;DHT22;38032;53.326;6.472;2023-05-14T11:27:40;25.90;81.40
52016;DHT22;38032;53.326;6.472;2023-05-14T11:30:14;25.90;81.80
52016;DHT22;38032;53.326;6.472;2023-05-14T11:32:42;25.90;78.70
52016;DHT22;38032;53.326;6.472;2023-05-14T11:35:08;25.80;75.70
52016;DHT22;38032;53.326;6.472;2023-05-14T11:37:34;25.60;76.10
52016;DHT22;38032;53.326;6.472;2023-05-14T11:40:00;25.50;76.50
52016;DHT22;38032;53.326;6.472;2023-05-14T11:42:26;25.40;74.60
52016;DHT22;38032;53.326;6.472;2023-05-14T11:44:52;25.30;75.50
52016;DHT22;38032;53.326;6.472;2023-05-14T11:47:20;25.30;78.80
52016;DHT22;38032;53.326;6.472;2023-05-14T11:49:46;25.30;79.70
52016;DHT22;38032;53.326;6.472;2023-05-14T11:52:14;25.30;81.10
52016;DHT22;38032;53.326;6.472;2023-05-14T11:54:42;25.30;84.30
52016;DHT22;38032;53.326;6.472;2023-05-14T11:57:11;25.40;83.90
52016;DHT22;38032;53.326;6.472;2023-05-14T11:59:38;25.40;81.30
52016;DHT22;38032;53.326;6.472;2023-05-14T12:02:09;25.50;83.10
52016;DHT22;38032;53.326;6.472;2023-05-14T12:04:35;25.50;84.90
52016;DHT22;38032;53.326;6.472;2023-05-14T12:07:07;25.50;86.10
52016;DHT22;38032;53.326;6.472;2023-05-14T12:09:36;25.50;83.00
52016;DHT22;38032;53.326;6.472;2023-05-14T12:12:08;25.40;84.10
52016;DHT22;38032;53.326;6.472;2023-05-14T12:14:38;25.20;83.10
52016;DHT22;38032;53.326;6.472;2023-05-14T12:17:11;25.00;85.60
52016;DHT22;38032;53.326;6.472;2023-05-14T12:19:39;24.90;88.90
52016;DHT22;38032;53.326;6.472;2023-05-14T12:22:08;24.70;88.80
52016;DHT22;38032;53.326;6.472;2023-05-14T12:24:34;24.60;91.00
52016;DHT22;38032;53.326;6.472;2023-05-14T12:27:01;24.40;91.80
52016;DHT22;38032;53.326;6.472;2023-05-14T12:29:27;24.20;94.00
52016;DHT22;38032;53.326;6.472;2023-05-14T12:31:56;24.20;95.70
52016;DHT22;38032;53.326;6.472;2023-05-14T12:34:22;24.30;96.30
52016;DHT22;38032;53.326;6.472;2023-05-14T12:36:48;24.30;97.00
52016;DHT22;38032;53.326;6.472;2023-05-14T12:39:14;24.10;98.10
52016;DHT22;38032;53.326;6.472;2023-05-14T12:41:40;23.80;98.80
52016;DHT22;38032;53.326;6.472;2023-05-14T12:44:05;23.60;99.70
52016;DHT22;38032;53.326;6.472;2023-05-14T12:46:32;23.60;99.90
52016;DHT22;38032;53.326;6.472;2023-05-14T12:48:58;23.40;99.90
52016;DHT22;38032;53.326;6.472;2023-05-14T12:51:24;23.30;99.90
52016;DHT22;38032;53.326;6.472;2023-05-14T12:53:50;23.40;99.90
52016;DHT22;38032;53.326;6.472;2023-05-14T12:56:19;23.40;99.90
52016;DHT22;38032;53.326;6.472;2023-05-14T12:58:46;23.20;99.90
52016;DHT22;38032;53.326;6.472;2023-05-14T13:01:12;23.00;99.90
52016;DHT22;38032;53.326;6.472;2023-05-14T13:03:37;23.00;99.90
52016;DHT22;38032;53.326;6.472;2023-05-14T13:06:03;23.00;99.90
52016;DHT22;38032;53.326;6.472;2023-05-14T13:08:29;22.80;99.90
52016;DHT22;38032;53.326;6.472;2023-05-14T13:10:55;22.70;99.90
52016;DHT22;38032;53.326;6.472;2023-05-14T13:13:22;22.80;99.90
52016;DHT22;38032;53.326;6.472;2023-05-14T13:15:48;22.80;99.90
52016;DHT22;38032;53.326;6.472;2023-05-14T13:18:15;22.80;99.90
52016;DHT22;38032;53.326;6.472;2023-05-14T13:20:41;22.80;99.90
52016;DHT22;38032;53.326;6.472;2023-05-14T13:23:07;22.80;99.90
52016;DHT22;38032;53.326;6.472;2023-05-14T13:25:33;22.60;99.90
52016;DHT22;38032;53.326;6.472;2023-05-14T13:27:59;22.50;99.90
52016;DHT22;38032;53.326;6.472;2023-05-14T13:30:25;22.40;99.90
52016;DHT22;38032;53.326;6.472;2023-05-14T13:32:51;22.30;99.90
52016;DHT22;38032;53.326;6.472;2023-05-14T13:35:17;22.30;99.90
52016;DHT22;38032;53.326;6.472;2023-05-14T13:37:43;22.30;99.90
52016;DHT22;38032;53.326;6.472;2023-05-14T13:40:09;22.40;99.90
52016;DHT22;38032;53.326;6.472;2023-05-14T13:42:36;22.40;99.90
52016;DHT22;38032;53.326;6.472;2023-05-14T13:45:02;22.50;99.90
52016;DHT22;38032;53.326;6.472;2023-05-14T13:47:28;22.60;99.90
52016;DHT22;38032;53.326;6.472;2023-05-14T13:49:54;22.60;99.90
52016;DHT22;38032;53.326;6.472;2023-05-14T13:52:21;22.60;99.90
52016;DHT22;38032;53.326;6.472;2023-05-14T13:54:47;22.60;99.90
52016;DHT22;38032;53.326;6.472;2023-05-14T13:57:13;22.70;99.90
52016;DHT22;38032;53.326;6.472;2023-05-14T13:59:40;22.70;99.90
52016;DHT22;38032;53.326;6.472;2023-05-14T14:02:07;22.60;99.90
52016;DHT22;38032;53.326;6.472;2023-05-14T14:04:33;22.60;99.90
52016;DHT22;38032;53.326;6.472;2023-05-14T14:06:59;22.50;99.90
52016;DHT22;38032;53.326;6.472;2023-05-14T14:09:25;22.30;99.90
52016;DHT22;38032;53.326;6.472;2023-05-14T14:11:50;22.20;99.90
52016;DHT22;38032;53.326;6.472;2023-05-14T14:14:17;22.20;99.90
52016;DHT22;38032;53.326;6.472;2023-05-14T14:16:43;22.10;99.90
52016;DHT22;38032;53.326;6.472;2023-05-14T14:19:09;22.10;99.90
52016;DHT22;38032;53.326;6.472;2023-05-14T14:21:35;22.10;99.90
52016;DHT22;38032;53.326;6.472;2023-05-14T14:24:04;22.10;99.90
52016;DHT22;38032;53.326;6.472;2023-05-14T14:26:30;22.10;99.90
52016;DHT22;38032;53.326;6.472;2023-05-14T14:28:56;22.10;99.90
52016;DHT22;38032;53.326;6.472;2023-05-14T14:31:22;22.20;99.90
52016;DHT22;38032;53.326;6.472;2023-05-14T14:33:48;22.10;99.90
52016;DHT22;38032;53.326;6.472;2023-05-14T14:36:14;22.10;99.90
52016;DHT22;38032;53.326;6.472;2023-05-14T14:38:40;22.10;99.90
52016;DHT22;38032;53.326;6.472;2023-05-14T14:41:06;22.10;99.90
52016;DHT22;38032;53.326;6.472;2023-05-14T14:43:33;21.90;99.90
52016;DHT22;38032;53.326;6.472;2023-05-14T14:45:59;21.80;99.90
52016;DHT22;38032;53.326;6.472;2023-05-14T14:48:32;21.70;99.90
52016;DHT22;38032;53.326;6.472;2023-05-14T14:51:02;21.70;99.90
52016;DHT22;38032;53.326;6.472;2023-05-14T14:53:29;21.50;99.90
52016;DHT22;38032;53.326;6.472;2023-05-14T14:55:56;21.50;99.90
52016;DHT22;38032;53.326;6.472;2023-05-14T14:58:22;21.50;99.90
52016;DHT22;38032;53.326;6.472;2023-05-14T15:00:51;21.50;99.90
52016;DHT22;38032;53.326;6.472;2023-05-14T15:03:18;21.50;99.90
52016;DHT22;38032;53.326;6.472;2023-05-14T15:05:44;21.50;99.90
52016;DHT22;38032;53.326;6.472;2023-05-14T15:08:10;21.40;99.90
52016;DHT22;38032;53.326;6.472;2023-05-14T15:10:36;21.40;99.90
52016;DHT22;38032;53.326;6.472;2023-05-14T15:13:04;21.40;99.90
52016;DHT22;38032;53.326;6.472;2023-05-14T15:15:32;21.30;99.90
52016;DHT22;38032;53.326;6.472;2023-05-14T15:17:58;21.30;99.90
52016;DHT22;38032;53.326;6.472;2023-05-14T15:20:24;21.40;99.90
52016;DHT22;38032;53.326;6.472;2023-05-14T15:22:50;21.30;99.90
52016;DHT22;38032;53.326;6.472;2023-05-14T15:25:18;21.30;99.90
52016;DHT22;38032;53.326;6.472;2023-05-14T15:27:44;21.20;99.90
52016;DHT22;38032;53.326;6.472;2023-05-14T15:30:11;21.20;99.90
52016;DHT22;38032;53.326;6.472;2023-05-14T15:32:37;21.20;99.90